Nagykanizsa, Hungary
Current Conditions -  °F | °C
As of 12:15 PM on Saturday 20 Dec 2014 (Local Time) from LHSM Reporting Station
Few Clouds Few Clouds  
Wind Chill: 52°   Ceiling: Unl
Heat Index: 52°   Visibility: 6mi
Dew Point: 41°   Wind: 6mph
Humidity: 67%   Direction: 360°N
Pressure: 30.21"   Gusts: NA
Location:  46.46°N, 16.99°E
Report Text: LHSM 201015Z 36005KT 9999 FEW023 11/05 Q1023 NOSIG
Loading
Personal Weather Stations






























Interactive Weather Map New forecast layout! Learn more

10-Day Weather Forecast

Advertisements
Track Severe Weather on mobile